createdAt,value
2024-04-25T00:00:20.102Z,982.78
2024-04-25T00:01:21.854Z,982.77
2024-04-25T00:02:23.985Z,982.73
2024-04-25T00:03:25.535Z,982.74
2024-04-25T00:04:27.103Z,982.76
2024-04-25T00:05:28.824Z,982.75
2024-04-25T00:06:30.529Z,982.69
2024-04-25T00:07:32.252Z,982.7
2024-04-25T00:08:34.020Z,982.74
2024-04-25T00:09:35.860Z,982.76
2024-04-25T00:10:37.464Z,982.72
2024-04-25T00:11:39.283Z,982.68
2024-04-25T00:12:40.906Z,982.65
2024-04-25T00:13:42.632Z,982.71
2024-04-25T00:14:44.462Z,982.71
2024-04-25T00:15:46.114Z,982.67
2024-04-25T00:16:47.928Z,982.72
2024-04-25T00:17:49.825Z,982.68
2024-04-25T00:18:51.353Z,982.68
2024-04-25T00:19:53.031Z,982.68
2024-04-25T00:20:54.996Z,982.68
2024-04-25T00:21:56.493Z,982.63
2024-04-25T00:22:58.229Z,982.63
2024-04-25T00:23:59.958Z,982.62
2024-04-25T00:25:01.806Z,982.62
2024-04-25T00:26:03.553Z,982.62
2024-04-25T00:27:05.163Z,982.58
2024-04-25T00:28:06.894Z,982.61
2024-04-25T00:29:08.656Z,982.63
2024-04-25T00:30:10.363Z,982.59
2024-04-25T00:31:12.099Z,982.54
2024-04-25T00:32:13.823Z,982.51
2024-04-25T00:33:15.688Z,982.49
2024-04-25T00:34:17.334Z,982.5
2024-04-25T00:35:19.127Z,982.45
2024-04-25T00:36:20.750Z,982.5
2024-04-25T00:37:22.620Z,982.45
2024-04-25T00:38:24.307Z,982.44
2024-04-25T00:39:26.025Z,982.43
2024-04-25T00:40:27.680Z,982.48
2024-04-25T00:41:29.526Z,982.44
2024-04-25T00:42:31.177Z,982.41
2024-04-25T00:43:32.888Z,982.46
2024-04-25T00:44:34.812Z,982.36
2024-04-25T00:45:36.393Z,982.4
2024-04-25T00:46:38.073Z,982.43
2024-04-25T00:47:39.991Z,982.39
2024-04-25T00:48:41.574Z,982.45
2024-04-25T00:49:43.517Z,982.41
2024-04-25T00:50:45.505Z,982.45
2024-04-25T00:51:46.767Z,982.47
2024-04-25T00:52:48.488Z,982.46
2024-04-25T00:53:50.225Z,982.48
2024-04-25T00:54:51.950Z,982.47
2024-04-25T00:55:53.666Z,982.44
2024-04-25T00:56:55.401Z,982.47
2024-04-25T00:57:57.305Z,982.46
2024-04-25T00:58:58.964Z,982.45
2024-04-25T01:00:00.627Z,982.44
2024-04-25T01:01:02.636Z,982.39
2024-04-25T01:02:04.132Z,982.47
2024-04-25T01:03:05.963Z,982.43
2024-04-25T01:04:07.632Z,982.43
2024-04-25T01:05:09.308Z,982.44
2024-04-25T01:06:10.966Z,982.47
2024-04-25T01:07:12.723Z,982.43
2024-04-25T01:08:14.501Z,982.44
2024-04-25T01:09:16.196Z,982.39
2024-04-25T01:10:17.951Z,982.43
2024-04-25T01:11:19.849Z,982.44
2024-04-25T01:12:21.384Z,982.4
2024-04-25T01:13:23.252Z,982.42
2024-04-25T01:14:24.917Z,982.39
2024-04-25T01:15:26.609Z,982.43
2024-04-25T01:16:28.396Z,982.39
2024-04-25T01:17:30.114Z,982.39
2024-04-25T01:18:31.788Z,982.42
2024-04-25T01:19:33.747Z,982.37
2024-04-25T01:20:35.385Z,982.3
2024-04-25T01:21:37.179Z,982.4
2024-04-25T01:22:38.724Z,982.35
2024-04-25T01:23:40.685Z,982.36
2024-04-25T01:24:42.181Z,982.34
2024-04-25T01:25:44.099Z,982.38
2024-04-25T01:26:45.663Z,982.31
2024-04-25T01:27:47.409Z,982.31
2024-04-25T01:28:49.134Z,982.32
2024-04-25T01:29:50.851Z,982.34
2024-04-25T01:30:52.592Z,982.3
2024-04-25T01:31:54.326Z,982.3
2024-04-25T01:32:56.370Z,982.29
2024-04-25T01:33:57.944Z,982.29
2024-04-25T01:34:59.556Z,982.29
2024-04-25T01:36:01.254Z,982.32
2024-04-25T01:37:03.209Z,982.28
2024-04-25T01:38:04.826Z,982.32
2024-04-25T01:39:06.458Z,982.33
2024-04-25T01:40:08.201Z,982.31
2024-04-25T01:41:09.979Z,982.31
2024-04-25T01:42:11.718Z,982.34
2024-04-25T01:43:13.391Z,982.31
2024-04-25T01:44:15.189Z,982.29
2024-04-25T01:45:16.927Z,982.29
2024-04-25T01:46:18.588Z,982.28
2024-04-25T01:47:20.427Z,982.28
2024-04-25T01:48:22.302Z,982.25
2024-04-25T01:49:23.854Z,982.24
2024-04-25T01:50:25.563Z,982.31
2024-04-25T01:51:27.258Z,982.25
2024-04-25T01:52:28.998Z,982.22
2024-04-25T01:53:30.812Z,982.25
2024-04-25T01:54:32.466Z,982.28
2024-04-25T01:55:34.180Z,982.22
2024-04-25T01:56:37.308Z,982.27
2024-04-25T01:57:37.660Z,982.21
2024-04-25T01:58:39.400Z,982.29
2024-04-25T01:59:41.124Z,982.27
2024-04-25T02:00:42.883Z,982.24
2024-04-25T02:01:44.571Z,982.27
2024-04-25T02:02:46.823Z,982.23
2024-04-25T02:03:48.175Z,982.19
2024-04-25T02:04:49.780Z,982.27
2024-04-25T02:05:51.515Z,982.23
2024-04-25T02:06:53.248Z,982.25
2024-04-25T02:07:54.980Z,982.22
2024-04-25T02:08:56.706Z,982.26
2024-04-25T02:09:58.600Z,982.21
2024-04-25T02:11:00.241Z,982.23
2024-04-25T02:12:02.171Z,982.21
2024-04-25T02:13:03.763Z,982.26
2024-04-25T02:14:05.592Z,982.27
2024-04-25T02:15:07.115Z,982.24
2024-04-25T02:16:09.094Z,982.3
2024-04-25T02:17:10.599Z,982.29
2024-04-25T02:18:12.568Z,982.26
2024-04-25T02:19:14.037Z,982.25
2024-04-25T02:20:15.809Z,982.24
2024-04-25T02:21:17.504Z,982.19
2024-04-25T02:22:19.247Z,982.2
2024-04-25T02:23:21.008Z,982.21
2024-04-25T02:24:22.726Z,982.21
2024-04-25T02:25:24.487Z,982.23
2024-04-25T02:26:27.601Z,982.21
2024-04-25T02:27:27.997Z,982.2
2024-04-25T02:28:42.655Z,982.25
2024-04-25T02:29:45.642Z,982.24
2024-04-25T02:31:10.206Z,982.27
2024-04-25T02:32:10.995Z,982.28
2024-04-25T02:33:11.577Z,982.3
2024-04-25T02:34:17.375Z,982.25
2024-04-25T02:35:20.235Z,982.26
2024-04-25T02:36:22.990Z,982.19
2024-04-25T02:37:24.975Z,982.3
2024-04-25T02:38:25.307Z,982.28
2024-04-25T02:39:27.476Z,982.27
2024-04-25T02:40:28.718Z,982.25
2024-04-25T02:41:31.851Z,982.27
2024-04-25T02:42:32.140Z,982.3
2024-04-25T02:43:33.860Z,982.27
2024-04-25T02:44:40.904Z,982.26
2024-04-25T02:45:41.171Z,982.22
2024-04-25T02:46:44.131Z,982.29
2024-04-25T02:47:47.529Z,982.3
2024-04-25T02:48:47.798Z,982.3
2024-04-25T02:49:49.463Z,982.33
2024-04-25T02:50:51.168Z,982.3
2024-04-25T02:51:52.953Z,982.32
2024-04-25T02:52:54.640Z,982.32
2024-04-25T02:53:57.404Z,982.31
2024-04-25T02:54:58.086Z,982.33
2024-04-25T02:55:59.815Z,982.33
2024-04-25T02:57:01.553Z,982.3
2024-04-25T02:58:03.270Z,982.3
2024-04-25T02:59:05.019Z,982.3
2024-04-25T03:00:06.730Z,982.34
2024-04-25T03:01:08.522Z,982.3
2024-04-25T03:02:10.470Z,982.33
2024-04-25T03:03:12.050Z,982.35
2024-04-25T03:04:13.648Z,982.34
2024-04-25T03:05:14.009Z,982.34
2024-04-25T03:06:23.080Z,982.32
2024-04-25T03:07:23.974Z,982.32
2024-04-25T03:08:25.804Z,982.27
2024-04-25T03:09:28.476Z,982.3
2024-04-25T03:10:30.298Z,982.32
2024-04-25T03:11:41.072Z,982.23
2024-04-25T03:12:44.353Z,982.23
2024-04-25T03:13:55.347Z,982.2
2024-04-25T03:14:56.700Z,982.19
2024-04-25T03:15:59.480Z,982.18
2024-04-25T03:17:01.233Z,982.16
2024-04-25T03:18:01.973Z,982.18
2024-04-25T03:19:05.036Z,982.2
2024-04-25T03:20:05.347Z,982.19
2024-04-25T03:21:27.582Z,982.15
2024-04-25T03:22:40.030Z,982.19
2024-04-25T03:23:53.349Z,982.14
2024-04-25T03:24:57.784Z,982.15
2024-04-25T03:26:03.345Z,982.17
2024-04-25T03:27:04.156Z,982.16
2024-04-25T03:28:08.491Z,982.07
2024-04-25T03:29:18.864Z,982.17
2024-04-25T03:30:19.377Z,982.07
2024-04-25T03:31:21.780Z,982.2
2024-04-25T03:32:23.513Z,982.19
2024-04-25T03:33:23.741Z,982.18
2024-04-25T03:34:26.922Z,982.17
2024-04-25T03:35:27.129Z,982.21
2024-04-25T03:36:28.859Z,982.19
2024-04-25T03:37:39.610Z,982.18
2024-04-25T03:38:41.398Z,982.22
2024-04-25T03:39:43.130Z,982.17
2024-04-25T03:40:44.861Z,982.17
2024-04-25T03:41:46.629Z,982.16
2024-04-25T03:42:48.343Z,982.19
2024-04-25T03:43:50.067Z,982.19
2024-04-25T03:44:51.816Z,982.16
2024-04-25T03:45:53.537Z,982.16
2024-04-25T03:46:55.273Z,982.17
2024-04-25T03:47:57.153Z,982.15
2024-04-25T03:48:58.862Z,982.18
2024-04-25T03:50:00.456Z,982.12
2024-04-25T03:51:02.194Z,982.13
2024-04-25T03:52:03.951Z,982.17
2024-04-25T03:53:05.703Z,982.15
2024-04-25T03:54:07.374Z,982.17
2024-04-25T03:55:09.121Z,982.15
2024-04-25T03:56:10.895Z,982.12
2024-04-25T03:57:12.611Z,982.14
2024-04-25T03:58:14.327Z,982.18
2024-04-25T03:59:16.101Z,982.17
2024-04-25T04:00:17.801Z,982.18
2024-04-25T04:01:19.620Z,982.15
2024-04-25T04:02:21.364Z,982.16
2024-04-25T04:03:22.489Z,982.18
2024-04-25T04:04:24.746Z,982.2
2024-04-25T04:05:26.637Z,982.2
2024-04-25T04:06:29.430Z,982.21
2024-04-25T04:07:34.299Z,982.2
2024-04-25T04:08:38.398Z,982.21
2024-04-25T04:09:39.576Z,982.18
2024-04-25T04:10:40.213Z,982.14
2024-04-25T04:11:41.203Z,982.18
2024-04-25T04:12:47.913Z,982.09
2024-04-25T04:13:50.694Z,982.16
2024-04-25T04:14:54.228Z,982.19
2024-04-25T04:15:56.315Z,982.14
2024-04-25T04:17:01.165Z,982.21
2024-04-25T04:18:03.685Z,982.14
2024-04-25T04:19:04.441Z,982.18
2024-04-25T04:20:08.516Z,982.19
2024-04-25T04:21:11.862Z,982.16
2024-04-25T04:22:16.488Z,982.22
2024-04-25T04:23:18.360Z,982.19
2024-04-25T04:24:20.016Z,982.16
2024-04-25T04:25:34.141Z,982.22
2024-04-25T04:26:58.880Z,982.21
2024-04-25T04:28:55.934Z,982.32
2024-04-25T04:30:05.728Z,982.25
2024-04-25T04:31:06.012Z,982.22
2024-04-25T04:32:09.215Z,982.23
2024-04-25T04:33:09.599Z,982.26
2024-04-25T04:34:11.219Z,982.25
2024-04-25T04:35:13.389Z,982.27
2024-04-25T04:36:14.693Z,982.21
2024-04-25T04:37:17.746Z,982.27
2024-04-25T04:38:36.986Z,982.21
2024-04-25T04:39:38.371Z,982.22
2024-04-25T04:40:40.097Z,982.23
2024-04-25T04:41:41.900Z,982.23
2024-04-25T04:42:43.618Z,982.18
2024-04-25T04:43:44.374Z,982.28
2024-04-25T04:44:58.827Z,982.22
2024-04-25T04:45:59.369Z,982.24
2024-04-25T04:47:01.047Z,982.22
2024-04-25T04:48:03.458Z,982.21
2024-04-25T04:49:04.306Z,982.23
2024-04-25T04:50:07.492Z,982.24
2024-04-25T04:51:08.980Z,982.23
2024-04-25T04:52:09.416Z,982.27
2024-04-25T04:53:16.227Z,982.23
2024-04-25T04:54:19.127Z,982.28
2024-04-25T04:55:20.872Z,982.3
2024-04-25T04:56:23.079Z,982.31
2024-04-25T04:57:23.182Z,982.3
2024-04-25T04:58:29.448Z,982.17
2024-04-25T04:59:31.594Z,982.26
2024-04-25T05:00:31.734Z,982.33
2024-04-25T05:01:38.316Z,982.31
2024-04-25T05:02:38.629Z,982.35
2024-04-25T05:03:38.961Z,982.33
2024-04-25T05:04:41.813Z,982.32
2024-04-25T05:05:52.030Z,982.3
2024-04-25T05:06:59.723Z,982.32
2024-04-25T05:08:13.236Z,982.36
2024-04-25T05:09:18.294Z,982.34
2024-04-25T05:10:20.065Z,982.36
2024-04-25T05:11:26.040Z,982.34
2024-04-25T05:12:30.133Z,982.36
2024-04-25T05:13:30.592Z,982.36
2024-04-25T05:14:32.177Z,982.37
2024-04-25T05:15:33.822Z,982.41
2024-04-25T05:16:39.739Z,982.24
2024-04-25T05:17:46.333Z,982.39
2024-04-25T05:19:46.086Z,982.43
2024-04-25T05:21:08.116Z,982.43
2024-04-25T05:22:49.600Z,982.51
2024-04-25T05:23:53.850Z,982.51
2024-04-25T05:24:59.236Z,982.5
2024-04-25T05:26:28.432Z,982.57
2024-04-25T05:27:30.131Z,982.58
2024-04-25T05:28:31.862Z,982.6
2024-04-25T05:29:38.524Z,982.64
2024-04-25T05:30:41.737Z,982.61
2024-04-25T05:31:55.512Z,982.61
2024-04-25T05:33:06.462Z,982.59
2024-04-25T05:34:07.053Z,982.57
2024-04-25T05:35:08.861Z,982.6
2024-04-25T05:36:10.582Z,982.61
2024-04-25T05:37:16.829Z,982.57
2024-04-25T05:38:20.418Z,982.53
2024-04-25T05:39:21.379Z,982.53
2024-04-25T05:40:26.093Z,982.63
2024-04-25T05:41:29.931Z,982.63
2024-04-25T05:42:30.277Z,982.59
2024-04-25T05:43:49.660Z,982.64
2024-04-25T05:44:50.404Z,982.63
2024-04-25T05:46:01.574Z,982.67
2024-04-25T05:47:02.829Z,982.63
2024-04-25T05:48:09.184Z,982.56
2024-04-25T05:49:21.098Z,982.65
2024-04-25T05:50:52.011Z,982.62
2024-04-25T05:51:57.928Z,982.62
2024-04-25T05:53:01.140Z,982.65
2024-04-25T05:54:18.959Z,982.62
2024-04-25T05:55:19.727Z,982.65
2024-04-25T05:56:23.764Z,982.66
2024-04-25T05:57:24.179Z,982.62
2024-04-25T05:58:26.917Z,982.59
2024-04-25T05:59:27.622Z,982.62
2024-04-25T06:00:29.820Z,982.55
2024-04-25T06:01:31.043Z,982.57
2024-04-25T06:02:32.022Z,982.65
2024-04-25T06:03:38.318Z,982.65
2024-04-25T06:04:44.149Z,982.66
2024-04-25T06:05:48.314Z,982.68
2024-04-25T06:06:55.204Z,982.68
2024-04-25T06:08:04.378Z,982.68
2024-04-25T06:09:19.568Z,982.67
2024-04-25T06:10:21.012Z,982.67
2024-04-25T06:11:29.255Z,982.67
2024-04-25T06:13:23.517Z,982.63
2024-04-25T06:14:31.391Z,982.68
2024-04-25T06:15:33.261Z,982.68
2024-04-25T06:16:39.887Z,982.67
2024-04-25T06:17:40.826Z,982.66
2024-04-25T06:18:52.902Z,982.66
2024-04-25T06:19:55.564Z,982.67
2024-04-25T06:20:57.369Z,982.7
2024-04-25T06:22:09.788Z,982.72
2024-04-25T06:23:09.946Z,982.76
2024-04-25T06:24:11.623Z,982.77
2024-04-25T06:25:13.373Z,982.78
2024-04-25T06:26:25.296Z,982.76
2024-04-25T06:27:34.624Z,982.79
2024-04-25T06:28:36.420Z,982.75
2024-04-25T06:29:38.317Z,982.78
2024-04-25T06:30:46.838Z,982.82
2024-04-25T06:31:46.892Z,982.79
2024-04-25T06:32:48.739Z,982.81
2024-04-25T06:33:49.725Z,982.77
2024-04-25T06:34:57.941Z,982.75
2024-04-25T06:36:02.202Z,982.77
2024-04-25T06:37:05.828Z,982.79
2024-04-25T06:38:08.801Z,982.78
2024-04-25T06:39:10.848Z,982.76
2024-04-25T06:40:10.990Z,982.81
2024-04-25T06:41:13.233Z,982.78
2024-04-25T06:42:14.526Z,982.81
2024-04-25T06:43:16.180Z,982.81
2024-04-25T06:45:22.616Z,982.82
2024-04-25T06:46:37.203Z,982.82
2024-04-25T06:47:48.628Z,982.83
2024-04-25T06:48:54.756Z,982.81
2024-04-25T06:49:53.827Z,982.8
2024-04-25T06:50:54.043Z,982.78
2024-04-25T06:52:17.100Z,982.77
2024-04-25T06:53:23.460Z,982.67
2024-04-25T06:54:25.715Z,982.8
2024-04-25T06:55:25.550Z,982.81
2024-04-25T06:56:37.501Z,982.82
2024-04-25T06:57:43.947Z,982.85
2024-04-25T06:58:46.075Z,982.8
2024-04-25T06:59:48.669Z,982.78
2024-04-25T07:00:59.428Z,982.76
2024-04-25T07:02:51.485Z,982.75
2024-04-25T07:03:54.649Z,982.79
2024-04-25T07:05:46.833Z,982.77
2024-04-25T07:06:52.579Z,982.8
2024-04-25T07:07:53.887Z,982.78
2024-04-25T07:08:55.127Z,982.78
2024-04-25T07:09:56.914Z,982.78
2024-04-25T07:10:59.223Z,982.82
2024-04-25T07:12:01.557Z,982.79
2024-04-25T07:13:03.210Z,982.75
2024-04-25T07:14:03.789Z,982.73
2024-04-25T07:15:06.635Z,982.75
2024-04-25T07:16:08.340Z,982.71
2024-04-25T07:17:10.556Z,982.75
2024-04-25T07:18:11.356Z,982.69
2024-04-25T07:19:22.287Z,982.7
2024-04-25T07:20:24.542Z,982.7
2024-04-25T07:21:31.878Z,982.7
2024-04-25T07:22:37.451Z,982.7
2024-04-25T07:23:41.049Z,982.7
2024-04-25T07:24:44.353Z,982.68
2024-04-25T07:25:52.887Z,982.73
2024-04-25T07:27:11.157Z,982.7
2024-04-25T07:28:12.823Z,982.75
2024-04-25T07:29:13.144Z,982.7
2024-04-25T07:30:16.240Z,982.71
2024-04-25T07:31:17.931Z,982.7
2024-04-25T07:32:20.868Z,982.71
2024-04-25T07:33:47.412Z,982.66
2024-04-25T07:34:49.019Z,982.6
2024-04-25T07:35:52.202Z,982.64
2024-04-25T07:37:03.015Z,982.7
2024-04-25T07:38:04.535Z,982.66
2024-04-25T07:39:07.694Z,982.69
2024-04-25T07:40:07.921Z,982.71
2024-04-25T07:41:09.659Z,982.68
2024-04-25T07:42:11.323Z,982.73
2024-04-25T07:43:13.092Z,982.69
2024-04-25T07:44:16.214Z,982.64
2024-04-25T07:45:18.999Z,982.68
2024-04-25T07:46:39.451Z,982.73
2024-04-25T07:47:42.321Z,982.73
2024-04-25T07:48:56.879Z,982.68
2024-04-25T07:49:57.824Z,982.72
2024-04-25T07:51:03.973Z,982.72
2024-04-25T07:52:06.424Z,982.67
2024-04-25T07:53:10.419Z,982.67
2024-04-25T07:54:11.124Z,982.69
2024-04-25T07:55:11.640Z,982.68
2024-04-25T07:56:14.856Z,982.65
2024-04-25T07:57:17.533Z,982.65
2024-04-25T07:58:22.956Z,982.64
2024-04-25T07:59:23.744Z,982.67
2024-04-25T08:00:30.721Z,982.72
2024-04-25T08:01:32.450Z,982.68
2024-04-25T08:02:44.785Z,982.65
2024-04-25T08:03:46.210Z,982.65
2024-04-25T08:04:47.937Z,982.68
2024-04-25T08:05:50.744Z,982.68
2024-04-25T08:07:01.634Z,982.7
2024-04-25T08:08:06.321Z,982.71
2024-04-25T08:09:10.290Z,982.65
2024-04-25T08:10:13.198Z,982.69
2024-04-25T08:11:13.926Z,982.68
2024-04-25T08:12:15.506Z,982.74
2024-04-25T08:13:18.712Z,982.69
2024-04-25T08:14:20.519Z,982.69
2024-04-25T08:15:26.767Z,982.67
2024-04-25T08:16:29.089Z,982.7
2024-04-25T08:17:43.172Z,982.69
2024-04-25T08:18:45.416Z,982.7
2024-04-25T08:19:46.620Z,982.69
2024-04-25T08:20:51.347Z,982.71
2024-04-25T08:21:54.368Z,982.71
2024-04-25T08:22:56.941Z,982.72
2024-04-25T08:23:58.971Z,982.7
2024-04-25T08:25:04.966Z,982.66
2024-04-25T08:26:07.372Z,982.68
2024-04-25T08:27:09.108Z,982.72
2024-04-25T08:28:10.832Z,982.68
2024-04-25T08:29:12.780Z,982.7
2024-04-25T08:30:14.261Z,982.69
2024-04-25T08:31:20.064Z,982.68
2024-04-25T08:32:26.095Z,982.64
2024-04-25T08:33:24.737Z,982.69
2024-04-25T08:34:30.450Z,982.66
2024-04-25T08:35:33.234Z,982.63
2024-04-25T08:36:34.914Z,982.69
2024-04-25T08:37:40.754Z,982.67
2024-04-25T08:38:44.491Z,982.63
2024-04-25T08:39:46.556Z,982.66
2024-04-25T08:40:57.395Z,982.65
2024-04-25T08:41:58.217Z,982.67
2024-04-25T08:43:00.886Z,982.67
2024-04-25T08:44:02.628Z,982.58
2024-04-25T08:45:04.295Z,982.67
2024-04-25T08:46:10.514Z,982.74
2024-04-25T08:47:13.069Z,982.73
2024-04-25T08:48:14.918Z,982.77
2024-04-25T08:49:16.378Z,982.75
2024-04-25T08:50:23.483Z,982.78
2024-04-25T08:51:25.104Z,982.75
2024-04-25T08:52:25.710Z,982.68
2024-04-25T08:53:28.514Z,982.71
2024-04-25T08:54:30.195Z,982.73
2024-04-25T08:55:33.388Z,982.69
2024-04-25T08:56:34.988Z,982.66
2024-04-25T08:57:35.356Z,982.69
2024-04-25T08:58:38.224Z,982.66
2024-04-25T08:59:54.469Z,982.66
2024-04-25T09:00:56.821Z,982.65
2024-04-25T09:01:57.779Z,982.67
2024-04-25T09:02:59.782Z,982.65
2024-04-25T09:04:01.186Z,982.66
2024-04-25T09:05:04.429Z,982.63
2024-04-25T09:06:05.890Z,982.61
2024-04-25T09:07:07.575Z,982.65
2024-04-25T09:08:08.183Z,982.67
2024-04-25T09:09:15.187Z,982.59
2024-04-25T09:10:18.009Z,982.6
2024-04-25T09:11:18.524Z,982.63
2024-04-25T09:12:20.306Z,982.59
2024-04-25T09:13:26.607Z,982.63
2024-04-25T09:14:28.745Z,982.57
2024-04-25T09:15:30.440Z,982.55
2024-04-25T09:16:31.227Z,982.55
2024-04-25T09:17:52.464Z,982.51
2024-04-25T09:19:00.120Z,982.52
2024-04-25T09:20:00.991Z,982.48
2024-04-25T09:21:02.874Z,982.42
2024-04-25T09:22:03.640Z,982.49
2024-04-25T09:23:06.913Z,982.45
2024-04-25T09:24:08.024Z,982.43
2024-04-25T09:25:20.288Z,982.36
2024-04-25T09:26:26.057Z,982.38
2024-04-25T09:27:29.935Z,982.37
2024-04-25T09:28:45.897Z,982.35
2024-04-25T09:29:47.483Z,982.35
2024-04-25T09:30:49.144Z,982.3
2024-04-25T09:31:52.057Z,982.33
2024-04-25T09:32:52.743Z,982.32
2024-04-25T09:33:54.460Z,982.32
2024-04-25T09:34:55.174Z,982.32
2024-04-25T09:35:57.867Z,982.3
2024-04-25T09:36:59.614Z,982.34
2024-04-25T09:38:05.391Z,982.37
2024-04-25T09:39:08.177Z,982.35
2024-04-25T09:40:09.952Z,982.37
2024-04-25T09:41:11.659Z,982.36
2024-04-25T09:42:25.067Z,982.36
2024-04-25T09:43:25.351Z,982.38
2024-04-25T09:44:27.338Z,982.35
2024-04-25T09:45:29.961Z,982.31
2024-04-25T09:46:31.825Z,982.23
2024-04-25T09:47:36.691Z,982.26
2024-04-25T09:48:39.224Z,982.31
2024-04-25T09:49:40.957Z,982.26
2024-04-25T09:50:48.808Z,982.28
2024-04-25T09:51:49.588Z,982.25
2024-04-25T09:52:51.299Z,982.23
2024-04-25T09:53:53.095Z,982.23
2024-04-25T09:54:58.830Z,982.24
2024-04-25T09:56:00.584Z,982.3
2024-04-25T09:57:03.345Z,982.29
2024-04-25T09:58:12.473Z,982.33
2024-04-25T09:59:16.287Z,982.33
2024-04-25T10:00:34.324Z,982.34
2024-04-25T10:01:36.050Z,982.35
2024-04-25T10:02:37.765Z,982.29
2024-04-25T10:03:39.572Z,982.32
2024-04-25T10:04:41.252Z,982.29
2024-04-25T10:05:44.317Z,982.31
2024-04-25T10:06:44.707Z,982.37
2024-04-25T10:07:46.447Z,982.36
2024-04-25T10:08:55.012Z,982.42
2024-04-25T10:09:55.036Z,982.46
2024-04-25T10:11:04.061Z,982.57
2024-04-25T10:12:05.029Z,982.58
2024-04-25T10:13:06.597Z,982.63
2024-04-25T10:14:11.385Z,982.64
2024-04-25T10:15:18.402Z,982.77
2024-04-25T10:16:20.851Z,982.75
2024-04-25T10:17:23.734Z,982.76
2024-04-25T10:18:25.641Z,982.71
2024-04-25T10:19:25.992Z,982.77
2024-04-25T10:20:27.819Z,982.75
2024-04-25T10:21:29.478Z,982.78
2024-04-25T10:22:33.090Z,982.76
2024-04-25T10:23:32.946Z,982.64
2024-04-25T10:24:34.639Z,982.62
2024-04-25T10:25:37.605Z,982.55
2024-04-25T10:26:38.162Z,982.46
2024-04-25T10:27:39.844Z,982.47
2024-04-25T10:28:41.690Z,982.46
2024-04-25T10:29:43.398Z,982.34
2024-04-25T10:30:45.038Z,982.28
2024-04-25T10:31:47.958Z,982.35
2024-04-25T10:32:48.858Z,982.3
2024-04-25T10:33:50.425Z,982.29
2024-04-25T10:34:53.879Z,982.27
2024-04-25T10:36:00.326Z,982.25
2024-04-25T10:37:00.650Z,982.26
2024-04-25T10:38:02.399Z,982.18
2024-04-25T10:39:08.479Z,982.22
2024-04-25T10:40:05.792Z,982.2
2024-04-25T10:41:07.507Z,982.16
2024-04-25T10:42:09.276Z,982.08
2024-04-25T10:43:10.985Z,982.08
2024-04-25T10:44:12.779Z,982.11
2024-04-25T10:45:14.455Z,982.05
2024-04-25T10:46:16.206Z,982.07
2024-04-25T10:47:19.476Z,982.06
2024-04-25T10:48:19.893Z,982.06
2024-04-25T10:49:21.722Z,982.08
2024-04-25T10:50:23.164Z,982.1
2024-04-25T10:51:25.767Z,982.03
2024-04-25T10:52:26.033Z,982.1
2024-04-25T10:53:29.378Z,982.07
2024-04-25T10:54:30.067Z,982.06
2024-04-25T10:55:32.877Z,982
2024-04-25T10:56:38.064Z,982.05
2024-04-25T10:57:40.381Z,981.97
2024-04-25T10:58:42.105Z,982.02
2024-04-25T10:59:49.900Z,981.99
2024-04-25T11:00:50.825Z,982.03
2024-04-25T11:02:02.993Z,982.03
2024-04-25T11:03:08.790Z,981.98
2024-04-25T11:04:11.355Z,981.97
2024-04-25T11:05:13.144Z,981.91
2024-04-25T11:06:14.836Z,981.91
2024-04-25T11:07:16.708Z,981.85
2024-04-25T11:08:19.525Z,981.91
2024-04-25T11:09:20.339Z,981.87
2024-04-25T11:10:21.855Z,981.91
2024-04-25T11:11:23.696Z,981.83
2024-04-25T11:12:26.482Z,981.87
2024-04-25T11:13:40.726Z,981.83
2024-04-25T11:14:41.159Z,981.78
2024-04-25T11:15:47.344Z,981.79
2024-04-25T11:16:49.017Z,981.81
2024-04-25T11:18:00.366Z,981.81
2024-04-25T11:19:07.784Z,981.76
2024-04-25T11:20:03.404Z,981.79
2024-04-25T11:21:05.182Z,981.77
2024-04-25T11:22:08.012Z,981.75
2024-04-25T11:23:08.521Z,981.71
2024-04-25T11:24:10.292Z,981.68
2024-04-25T11:25:11.843Z,981.69
2024-04-25T11:26:21.150Z,981.69
2024-04-25T11:27:22.074Z,981.65
2024-04-25T11:28:23.657Z,981.63
2024-04-25T11:29:28.459Z,981.67
2024-04-25T11:30:28.822Z,981.62
2024-04-25T11:31:31.838Z,981.64
2024-04-25T11:32:36.891Z,981.63
2024-04-25T11:33:39.379Z,981.62
2024-04-25T11:34:40.928Z,981.62
2024-04-25T11:35:43.951Z,981.66
2024-04-25T11:36:48.644Z,981.66
2024-04-25T11:37:55.657Z,981.61
2024-04-25T11:38:58.306Z,981.58
2024-04-25T11:39:58.831Z,981.54
2024-04-25T11:41:00.734Z,981.58
2024-04-25T11:42:02.516Z,981.55
2024-04-25T11:43:12.655Z,981.54
2024-04-25T11:44:21.274Z,981.56
2024-04-25T11:45:24.450Z,981.53
2024-04-25T11:46:30.077Z,981.52
2024-04-25T11:47:32.638Z,981.49
2024-04-25T11:48:34.308Z,981.38
2024-04-25T11:49:38.678Z,981.44
2024-04-25T11:50:45.697Z,981.54
2024-04-25T11:51:45.740Z,981.57
2024-04-25T11:52:47.714Z,981.46
2024-04-25T11:53:48.115Z,981.47
2024-04-25T11:54:49.790Z,981.51
2024-04-25T11:56:25.804Z,981.46
2024-04-25T11:57:38.944Z,981.41
2024-04-25T11:58:38.986Z,981.49
2024-04-25T11:59:40.736Z,981.43
2024-04-25T12:00:42.432Z,981.41
2024-04-25T12:01:44.292Z,981.41
2024-04-25T12:02:45.961Z,981.44
2024-04-25T12:03:48.788Z,981.43
2024-04-25T12:04:50.592Z,981.39
2024-04-25T12:05:52.310Z,981.44
2024-04-25T12:07:12.995Z,981.39
2024-04-25T12:08:18.012Z,981.34
2024-04-25T12:09:19.690Z,981.36
2024-04-25T12:10:22.543Z,981.34
2024-04-25T12:11:27.358Z,981.33
2024-04-25T12:12:29.373Z,981.35
2024-04-25T12:13:31.748Z,981.33
2024-04-25T12:14:40.611Z,981.35
2024-04-25T12:15:40.413Z,981.34
2024-04-25T12:16:42.098Z,981.3
2024-04-25T12:17:43.854Z,981.3
2024-04-25T12:18:45.515Z,981.23
2024-04-25T12:19:55.019Z,981.27
2024-04-25T12:21:09.906Z,981.3
2024-04-25T12:22:12.592Z,981.25
2024-04-25T12:23:13.320Z,981.2
2024-04-25T12:24:14.875Z,981.22
2024-04-25T12:25:18.518Z,981.28
2024-04-25T12:26:26.606Z,981.3
2024-04-25T12:27:30.364Z,981.2
2024-04-25T12:28:34.847Z,981.26
2024-04-25T12:29:34.789Z,981.28
2024-04-25T12:30:38.168Z,981.27
2024-04-25T12:31:43.527Z,981.22
2024-04-25T12:32:47.063Z,981.25
2024-04-25T12:33:48.450Z,981.27
2024-04-25T12:34:51.170Z,981.33
2024-04-25T12:35:53.135Z,981.25
2024-04-25T12:36:53.627Z,981.24
2024-04-25T12:37:54.762Z,981.23
2024-04-25T12:39:02.637Z,981.23
2024-04-25T12:40:03.920Z,981.26
2024-04-25T12:41:04.095Z,981.19
2024-04-25T12:42:07.632Z,981.2
2024-04-25T12:43:09.161Z,981.22
2024-04-25T12:44:10.907Z,981.21
2024-04-25T12:45:12.580Z,981.16
2024-04-25T12:46:14.326Z,981.18
2024-04-25T12:47:19.666Z,981.16
2024-04-25T12:48:33.665Z,981.17
2024-04-25T12:49:36.185Z,981.17
2024-04-25T12:50:36.712Z,981.13
2024-04-25T12:51:39.573Z,981.2
2024-04-25T12:52:40.412Z,981.19
2024-04-25T12:53:42.181Z,981.2
2024-04-25T12:54:46.126Z,981.12
2024-04-25T12:55:46.731Z,981.22
2024-04-25T12:56:47.067Z,981.21
2024-04-25T12:57:48.717Z,981.17
2024-04-25T12:58:51.395Z,981.17
2024-04-25T12:59:52.274Z,981.2
2024-04-25T13:00:53.965Z,981.21
2024-04-25T13:01:55.651Z,981.2
2024-04-25T13:03:01.861Z,981.17
2024-04-25T13:04:05.304Z,981.15
2024-04-25T13:05:06.025Z,981.15
2024-04-25T13:06:08.775Z,981.14
2024-04-25T13:07:09.614Z,981.14
2024-04-25T13:08:15.261Z,981.13
2024-04-25T13:09:18.072Z,981.12
2024-04-25T13:10:26.006Z,981.12
2024-04-25T13:11:26.274Z,981.13
2024-04-25T13:12:28.541Z,981.1
2024-04-25T13:13:31.755Z,981.12
2024-04-25T13:14:36.270Z,981.12
2024-04-25T13:15:38.924Z,981.1
2024-04-25T13:16:40.596Z,981.05
2024-04-25T13:17:47.694Z,981.05
2024-04-25T13:18:49.448Z,981.05
2024-04-25T13:19:52.240Z,980.97